createdAt,value
2019-03-10T00:01:20.792Z,98479.00
2019-03-10T00:03:56.522Z,98483.00
2019-03-10T00:06:26.115Z,98497.00
2019-03-10T00:09:01.869Z,98559.00
2019-03-10T00:11:37.515Z,98513.00
2019-03-10T00:14:07.088Z,98543.00
2019-03-10T00:16:43.789Z,98541.00
2019-03-10T00:19:13.550Z,98536.00
2019-03-10T00:21:56.389Z,98546.00
2019-03-10T00:24:25.828Z,98552.00
2019-03-10T00:27:01.843Z,98542.00
2019-03-10T00:29:31.418Z,98542.00
2019-03-10T00:32:00.928Z,98543.00
2019-03-10T00:34:37.044Z,98542.00
2019-03-10T00:37:06.632Z,98562.00
2019-03-10T00:39:50.309Z,98545.00
2019-03-10T00:42:53.636Z,98564.00
2019-03-10T00:45:59.494Z,98563.00
2019-03-10T00:48:58.906Z,98577.00
2019-03-10T00:52:08.385Z,98577.00
2019-03-10T00:54:44.225Z,98592.00
2019-03-10T00:57:13.884Z,98588.00
2019-03-10T00:59:50.633Z,98592.00
2019-03-10T01:02:20.138Z,98588.00
2019-03-10T01:04:49.582Z,98585.00
2019-03-10T01:07:26.023Z,98592.00
2019-03-10T01:09:55.594Z,98602.00
2019-03-10T01:12:31.681Z,98592.00
2019-03-10T01:15:01.283Z,98586.00
2019-03-10T01:17:32.742Z,98599.00
2019-03-10T01:20:09.036Z,98599.00
2019-03-10T01:22:58.787Z,98605.00
2019-03-10T01:25:28.722Z,98540.00
2019-03-10T01:27:58.244Z,98605.00
2019-03-10T01:30:37.930Z,98595.00
2019-03-10T01:33:44.175Z,98601.00
2019-03-10T01:36:21.972Z,98608.00
2019-03-10T01:38:51.493Z,98608.00
2019-03-10T01:41:27.112Z,98615.00
2019-03-10T01:43:56.626Z,98624.00
2019-03-10T01:46:32.191Z,98616.00
2019-03-10T01:49:08.325Z,98624.00
2019-03-10T01:51:37.760Z,98633.00
2019-03-10T01:54:19.914Z,98642.00
2019-03-10T01:56:56.350Z,98640.00
2019-03-10T01:59:25.869Z,98641.00
2019-03-10T02:02:01.556Z,98648.00
2019-03-10T02:04:31.141Z,98651.00
2019-03-10T02:07:07.142Z,98640.00
2019-03-10T02:09:36.667Z,98651.00
2019-03-10T02:12:12.790Z,98659.00
2019-03-10T02:14:42.306Z,98656.00
2019-03-10T02:17:11.814Z,98648.00
2019-03-10T02:19:47.552Z,98664.00
2019-03-10T02:22:23.480Z,98660.00
2019-03-10T02:25:05.707Z,98662.00
2019-03-10T02:27:35.215Z,98662.00
2019-03-10T02:30:15.936Z,98659.00
2019-03-10T02:32:45.442Z,98666.00
2019-03-10T02:35:15.042Z,98659.00
2019-03-10T02:37:51.307Z,98667.00
2019-03-10T02:40:20.741Z,98654.00
2019-03-10T02:42:56.747Z,98656.00
2019-03-10T02:45:33.319Z,98660.00
2019-03-10T02:48:02.869Z,98656.00
2019-03-10T02:50:32.350Z,98661.00
2019-03-10T02:53:08.369Z,98643.00
2019-03-10T02:55:44.796Z,98641.00
2019-03-10T02:58:20.371Z,98660.00
2019-03-10T03:00:56.475Z,98664.00
2019-03-10T03:03:25.983Z,98656.00
2019-03-10T03:06:02.482Z,98645.00
2019-03-10T03:08:37.967Z,98664.00
2019-03-10T03:11:07.469Z,98664.00
2019-03-10T03:13:43.937Z,98655.00
2019-03-10T03:16:13.369Z,98664.00
2019-03-10T03:18:55.281Z,98653.00
2019-03-10T03:21:24.958Z,98656.00
2019-03-10T03:24:07.588Z,98653.00
2019-03-10T03:26:43.989Z,98721.00
2019-03-10T03:29:19.953Z,98651.00
2019-03-10T03:31:55.501Z,98647.00
2019-03-10T03:34:32.037Z,98643.00
2019-03-10T03:37:08.213Z,98641.00
2019-03-10T03:39:45.085Z,98637.00
2019-03-10T03:42:20.971Z,98635.00
2019-03-10T03:44:50.415Z,98642.00
2019-03-10T03:47:26.073Z,98645.00
2019-03-10T03:49:55.526Z,98641.00
2019-03-10T03:52:31.517Z,98641.00
2019-03-10T03:55:07.193Z,98649.00
2019-03-10T03:57:42.747Z,98649.00
2019-03-10T04:00:20.214Z,98638.00
2019-03-10T04:02:49.653Z,98650.00
2019-03-10T04:05:25.618Z,98640.00
2019-03-10T04:08:01.934Z,98631.00
2019-03-10T04:10:31.371Z,98617.00
2019-03-10T04:13:07.277Z,98628.00
2019-03-10T04:15:44.113Z,98620.00
2019-03-10T04:18:13.557Z,98625.00
2019-03-10T04:20:43.004Z,98629.00
2019-03-10T04:23:19.292Z,98616.00
2019-03-10T04:25:55.773Z,98612.00
2019-03-10T04:28:32.087Z,98614.00
2019-03-10T04:31:15.547Z,98593.00
2019-03-10T04:33:45.050Z,98602.00
2019-03-10T04:36:21.079Z,98608.00
2019-03-10T04:38:56.607Z,98586.00
2019-03-10T04:41:32.590Z,98602.00
2019-03-10T04:44:02.028Z,98588.00
2019-03-10T04:46:31.463Z,98597.00
2019-03-10T04:49:08.081Z,98600.00
2019-03-10T04:51:43.968Z,98566.00
2019-03-10T04:54:21.663Z,98605.00
2019-03-10T04:56:52.741Z,98600.00
2019-03-10T04:59:28.747Z,98596.00
2019-03-10T05:01:58.178Z,98579.00
2019-03-10T05:04:34.927Z,98566.00
2019-03-10T05:07:10.755Z,98561.00
2019-03-10T05:09:40.185Z,98549.00
2019-03-10T05:12:16.182Z,98543.00
2019-03-10T05:14:51.717Z,98540.00
2019-03-10T05:17:27.178Z,98546.00
2019-03-10T05:20:02.983Z,98530.00
2019-03-10T05:22:32.434Z,98538.00
2019-03-10T05:25:15.308Z,98544.00
2019-03-10T05:27:51.683Z,98540.00
2019-03-10T05:30:27.299Z,98547.00
2019-03-10T05:32:56.739Z,98554.00
2019-03-10T05:35:33.298Z,98558.00
2019-03-10T05:38:02.731Z,98534.00
2019-03-10T05:40:38.288Z,98550.00
2019-03-10T05:43:07.799Z,98552.00
2019-03-10T05:45:43.519Z,98552.00
2019-03-10T05:48:12.981Z,98551.00
2019-03-10T05:50:48.509Z,98543.00
2019-03-10T05:53:17.953Z,98547.00
2019-03-10T05:55:54.029Z,98540.00
2019-03-10T05:58:23.460Z,98543.00
2019-03-10T06:00:59.085Z,98544.00
2019-03-10T06:03:28.589Z,98544.00
2019-03-10T06:05:58.028Z,98552.00
2019-03-10T06:08:33.771Z,98525.00
2019-03-10T06:11:03.211Z,98534.00
2019-03-10T06:13:39.070Z,98547.00
2019-03-10T06:16:08.506Z,98528.00
2019-03-10T06:18:50.960Z,98551.00
2019-03-10T06:21:20.421Z,98544.00
2019-03-10T06:23:56.277Z,98556.00
2019-03-10T06:26:32.226Z,98542.00
2019-03-10T06:29:14.327Z,98539.00
2019-03-10T06:31:43.836Z,98546.00
2019-03-10T06:34:20.109Z,98549.00
2019-03-10T06:36:49.525Z,98544.00
2019-03-10T06:39:19.036Z,98551.00
2019-03-10T06:41:55.528Z,98546.00
2019-03-10T06:44:25.020Z,98546.00
2019-03-10T06:47:01.550Z,98542.00
2019-03-10T06:49:30.996Z,98555.00
2019-03-10T06:52:07.548Z,98556.00
2019-03-10T06:54:44.071Z,98560.00
2019-03-10T06:57:20.312Z,98548.00
2019-03-10T06:59:56.152Z,98551.00
2019-03-10T07:02:25.674Z,98552.00
2019-03-10T07:04:55.197Z,98555.00
2019-03-10T07:07:30.830Z,98559.00
2019-03-10T07:10:15.900Z,98560.00
2019-03-10T07:12:51.771Z,98558.00
2019-03-10T07:15:21.417Z,98562.00
2019-03-10T07:17:58.228Z,98570.00
2019-03-10T07:20:34.407Z,98559.00
2019-03-10T07:23:05.550Z,98561.00
2019-03-10T07:25:48.264Z,98604.00
2019-03-10T07:28:26.299Z,98574.00
2019-03-10T07:31:11.175Z,98575.00
2019-03-10T07:33:42.263Z,98585.00
2019-03-10T07:36:25.594Z,98588.00
2019-03-10T07:39:18.180Z,98600.00
2019-03-10T07:41:58.862Z,98616.00
2019-03-10T07:44:36.457Z,98588.00
2019-03-10T07:47:14.242Z,98573.00
2019-03-10T07:49:48.143Z,98561.00
2019-03-10T07:52:26.197Z,98583.00
2019-03-10T07:55:09.491Z,98582.00
2019-03-10T07:57:53.968Z,98585.00
2019-03-10T08:00:31.690Z,98589.00
2019-03-10T08:03:12.214Z,98586.00
2019-03-10T08:05:43.299Z,98576.00
2019-03-10T08:08:24.761Z,98572.00
2019-03-10T08:10:55.847Z,98594.00
2019-03-10T08:13:51.467Z,98594.00
2019-03-10T08:16:38.588Z,98577.00
2019-03-10T08:19:25.330Z,98590.00
2019-03-10T08:22:19.572Z,98598.00
2019-03-10T08:25:09.060Z,98597.00
2019-03-10T08:28:02.160Z,98593.00
2019-03-10T08:30:49.328Z,98601.00
2019-03-10T08:33:36.385Z,98579.00
2019-03-10T08:36:14.033Z,98586.00
2019-03-10T08:39:00.898Z,98590.00
2019-03-10T08:41:38.087Z,98584.00
2019-03-10T08:44:23.901Z,98622.00
2019-03-10T08:47:06.809Z,98594.00
2019-03-10T08:49:45.158Z,98598.00
2019-03-10T08:52:20.132Z,98607.00
2019-03-10T08:54:57.358Z,98611.00
2019-03-10T08:57:41.428Z,98609.00
2019-03-10T09:00:18.124Z,98610.00
2019-03-10T09:03:04.922Z,98624.00
2019-03-10T09:05:43.218Z,98645.00
2019-03-10T09:08:29.310Z,98627.00
2019-03-10T09:11:23.144Z,98627.00
2019-03-10T09:14:01.383Z,98632.00
2019-03-10T09:16:38.080Z,98641.00
2019-03-10T09:19:25.230Z,98640.00
2019-03-10T09:22:02.627Z,98651.00
2019-03-10T09:24:49.268Z,98642.00
2019-03-10T09:27:29.477Z,98641.00
2019-03-10T09:30:29.405Z,98677.00
2019-03-10T09:33:09.258Z,98642.00
2019-03-10T09:35:49.438Z,98654.00
2019-03-10T09:38:35.995Z,98695.00
2019-03-10T09:41:10.019Z,98658.00
2019-03-10T09:43:47.319Z,98657.00
2019-03-10T09:46:24.566Z,98653.00
2019-03-10T09:49:02.878Z,98657.00
2019-03-10T09:51:33.970Z,98662.00
2019-03-10T09:54:05.345Z,98668.00
2019-03-10T09:56:57.915Z,98667.00
2019-03-10T09:59:47.836Z,98671.00
2019-03-10T10:02:25.621Z,98673.00
2019-03-10T10:04:56.857Z,98664.00
2019-03-10T10:07:40.047Z,98665.00
2019-03-10T10:10:27.588Z,98659.00
2019-03-10T10:13:08.825Z,98665.00
2019-03-10T10:15:46.206Z,98664.00
2019-03-10T10:18:24.050Z,98680.00
2019-03-10T10:21:05.143Z,98670.00
2019-03-10T10:23:39.426Z,98678.00
2019-03-10T10:26:26.111Z,98671.00
2019-03-10T10:29:03.422Z,98679.00
2019-03-10T10:31:41.101Z,98668.00
2019-03-10T10:34:41.323Z,98673.00
2019-03-10T10:37:21.494Z,98687.00
2019-03-10T10:39:58.908Z,98683.00
2019-03-10T10:42:35.921Z,98695.00
2019-03-10T10:45:21.028Z,98690.00
2019-03-10T10:48:15.003Z,98676.00
2019-03-10T10:50:52.436Z,98681.00
2019-03-10T10:53:41.680Z,98681.00
2019-03-10T10:56:35.163Z,98682.00
2019-03-10T10:59:14.990Z,98682.00
2019-03-10T11:02:01.948Z,98733.00
2019-03-10T11:04:49.146Z,98697.00
2019-03-10T11:07:26.898Z,98690.00
2019-03-10T11:10:06.454Z,98754.00
2019-03-10T11:12:59.033Z,98711.00
2019-03-10T11:15:53.540Z,98716.00
2019-03-10T11:18:33.501Z,98704.00
2019-03-10T11:21:07.676Z,98700.00
2019-03-10T11:23:48.298Z,98700.00
2019-03-10T11:26:31.567Z,98700.00
2019-03-10T11:29:08.824Z,98702.00
2019-03-10T11:31:53.380Z,98700.00
2019-03-10T11:34:31.203Z,98752.00
2019-03-10T11:37:11.903Z,98718.00
2019-03-10T11:39:45.740Z,98728.00
2019-03-10T11:42:29.669Z,98708.00
2019-03-10T11:45:22.799Z,98714.00
2019-03-10T11:48:06.931Z,98714.00
2019-03-10T11:50:40.532Z,98710.00
2019-03-10T11:53:20.709Z,98750.00
2019-03-10T11:55:57.649Z,98713.00
2019-03-10T11:58:35.843Z,98721.00
2019-03-10T12:01:10.409Z,98704.00
2019-03-10T12:03:47.759Z,98709.00
2019-03-10T12:06:37.276Z,98716.00
2019-03-10T12:09:15.776Z,98718.00
2019-03-10T12:11:52.378Z,98716.00
2019-03-10T12:14:22.027Z,98722.00
2019-03-10T12:16:58.499Z,98712.00
2019-03-10T12:19:28.006Z,98723.00
2019-03-10T12:22:09.989Z,98716.00
2019-03-10T12:24:46.001Z,98721.00
2019-03-10T12:27:22.774Z,98717.00
2019-03-10T12:29:52.231Z,98713.00
2019-03-10T12:32:35.311Z,98715.00
2019-03-10T12:35:06.715Z,98713.00
2019-03-10T12:37:43.191Z,98722.00
2019-03-10T12:40:13.572Z,98711.00
2019-03-10T12:42:49.327Z,98704.00
2019-03-10T12:45:18.914Z,98719.00
2019-03-10T12:47:55.075Z,98718.00
2019-03-10T12:50:31.483Z,98721.00
2019-03-10T12:53:00.934Z,98724.00
2019-03-10T12:55:37.097Z,98740.00
2019-03-10T12:58:06.695Z,98728.00
2019-03-10T13:00:43.554Z,98734.00
2019-03-10T13:03:13.006Z,98729.00
2019-03-10T13:05:49.579Z,98734.00
2019-03-10T13:08:19.022Z,98729.00
2019-03-10T13:10:54.651Z,98729.00
2019-03-10T13:13:24.207Z,98730.00
2019-03-10T13:16:00.252Z,98730.00
2019-03-10T13:18:29.691Z,98740.00
2019-03-10T13:21:05.637Z,98731.00
2019-03-10T13:23:42.104Z,98730.00
2019-03-10T13:26:24.092Z,98726.00
2019-03-10T13:28:53.892Z,98728.00
2019-03-10T13:31:30.343Z,98767.00
2019-03-10T13:34:06.318Z,98723.00
2019-03-10T13:36:41.866Z,98728.00
2019-03-10T13:39:18.351Z,98715.00
2019-03-10T13:41:54.827Z,98718.00
2019-03-10T13:44:30.505Z,98717.00
2019-03-10T13:47:06.750Z,98705.00
2019-03-10T13:49:36.339Z,98701.00
2019-03-10T13:52:26.757Z,98703.00
2019-03-10T13:55:02.999Z,98700.00
2019-03-10T13:57:39.638Z,98705.00
2019-03-10T14:00:27.645Z,98691.00
2019-03-10T14:03:03.836Z,98706.00
2019-03-10T14:05:33.698Z,98677.00
2019-03-10T14:08:10.135Z,98690.00
2019-03-10T14:10:39.585Z,98683.00
2019-03-10T14:13:15.922Z,98678.00
2019-03-10T14:15:51.993Z,98672.00
2019-03-10T14:18:28.218Z,98677.00
2019-03-10T14:21:04.213Z,98670.00
2019-03-10T14:23:33.735Z,98671.00
2019-03-10T14:26:12.151Z,98667.00
2019-03-10T14:28:41.664Z,98666.00
2019-03-10T14:31:18.356Z,98659.00
2019-03-10T14:34:01.034Z,98656.00
2019-03-10T14:36:40.469Z,98651.00
2019-03-10T14:39:16.578Z,98646.00
2019-03-10T14:41:53.437Z,98641.00
2019-03-10T14:44:23.035Z,98639.00
2019-03-10T14:46:58.586Z,98637.00
2019-03-10T14:49:28.243Z,98639.00
2019-03-10T14:52:04.001Z,98566.00
2019-03-10T14:54:40.668Z,98621.00
2019-03-10T14:57:10.349Z,98621.00
2019-03-10T14:59:46.136Z,98477.00
2019-03-10T15:02:15.610Z,98613.00
2019-03-10T15:04:45.144Z,98607.00
2019-03-10T15:07:22.018Z,98612.00
2019-03-10T15:09:51.543Z,98612.00
2019-03-10T15:12:28.257Z,98607.00
2019-03-10T15:15:04.689Z,98611.00
2019-03-10T15:17:34.288Z,98611.00
2019-03-10T15:20:11.172Z,98607.00
2019-03-10T15:22:47.658Z,98602.00
2019-03-10T15:25:31.688Z,98609.00
2019-03-10T15:28:01.365Z,98603.00
2019-03-10T15:30:38.044Z,98595.00
2019-03-10T15:33:13.762Z,98586.00
2019-03-10T15:35:55.876Z,98439.00
2019-03-10T15:38:25.467Z,98583.00
2019-03-10T15:41:01.359Z,98568.00
2019-03-10T15:43:37.952Z,98578.00
2019-03-10T15:46:07.470Z,98575.00
2019-03-10T15:48:44.144Z,98565.00
2019-03-10T15:51:13.732Z,98557.00
2019-03-10T15:53:49.496Z,98556.00
2019-03-10T15:56:18.958Z,98556.00
2019-03-10T15:58:55.426Z,98559.00
2019-03-10T16:01:31.041Z,98549.00
2019-03-10T16:04:16.331Z,98551.00
2019-03-10T16:06:53.465Z,98554.00
2019-03-10T16:09:23.071Z,98546.00
2019-03-10T16:11:52.686Z,98544.00
2019-03-10T16:14:29.175Z,98541.00
2019-03-10T16:17:06.028Z,98529.00
2019-03-10T16:19:42.548Z,98536.00
2019-03-10T16:22:12.330Z,98520.00
2019-03-10T16:24:48.743Z,98520.00
2019-03-10T16:27:18.279Z,98511.00
2019-03-10T16:29:54.865Z,98506.00
2019-03-10T16:32:24.322Z,98510.00
2019-03-10T16:35:06.825Z,98503.00
2019-03-10T16:37:42.483Z,98514.00
2019-03-10T16:40:27.889Z,98501.00
2019-03-10T16:42:57.481Z,98495.00
2019-03-10T16:45:35.710Z,98495.00
2019-03-10T16:48:05.754Z,98498.00
2019-03-10T16:50:35.374Z,98498.00
2019-03-10T16:53:12.037Z,98500.00
2019-03-10T16:55:41.734Z,98498.00
2019-03-10T16:58:18.012Z,98522.00
2019-03-10T17:00:48.349Z,98489.00
2019-03-10T17:03:18.146Z,98493.00
2019-03-10T17:05:55.150Z,98487.00
2019-03-10T17:08:24.828Z,98483.00
2019-03-10T17:11:07.240Z,98489.00
2019-03-10T17:13:43.264Z,98474.00
2019-03-10T17:16:19.145Z,98482.00
2019-03-10T17:18:48.667Z,98472.00
2019-03-10T17:21:24.421Z,98482.00
2019-03-10T17:23:53.961Z,98470.00
2019-03-10T17:26:23.653Z,98473.00
2019-03-10T17:29:00.222Z,98478.00
2019-03-10T17:31:29.872Z,98478.00
2019-03-10T17:34:05.615Z,98484.00
2019-03-10T17:36:42.056Z,98485.00
2019-03-10T17:39:11.642Z,98487.00
2019-03-10T17:41:47.941Z,98480.00
2019-03-10T17:44:17.550Z,98470.00
2019-03-10T17:46:53.976Z,98468.00
2019-03-10T17:49:23.493Z,98462.00
2019-03-10T17:51:59.744Z,98457.00
2019-03-10T17:54:36.440Z,98447.00
2019-03-10T17:57:06.104Z,98444.00
2019-03-10T17:59:35.724Z,98444.00
2019-03-10T18:02:12.032Z,98446.00
2019-03-10T18:04:43.859Z,98449.00
2019-03-10T18:07:19.766Z,98442.00
2019-03-10T18:09:56.318Z,98431.00
2019-03-10T18:12:26.157Z,98443.00
2019-03-10T18:15:09.221Z,98438.00
2019-03-10T18:17:38.926Z,98425.00
2019-03-10T18:20:29.869Z,98431.00
2019-03-10T18:22:59.617Z,98428.00
2019-03-10T18:25:35.428Z,98378.00
2019-03-10T18:28:06.344Z,98428.00
2019-03-10T18:30:49.300Z,98429.00
2019-03-10T18:33:18.976Z,98430.00
2019-03-10T18:35:56.444Z,98419.00
2019-03-10T18:38:32.096Z,98428.00
2019-03-10T18:41:08.144Z,98419.00
2019-03-10T18:43:44.058Z,98419.00
2019-03-10T18:46:13.656Z,98416.00
2019-03-10T18:48:43.470Z,98423.00
2019-03-10T18:51:19.854Z,98427.00
2019-03-10T18:53:49.370Z,98421.00
2019-03-10T18:56:25.734Z,98421.00
2019-03-10T18:58:56.716Z,98420.00
2019-03-10T19:01:33.451Z,98419.00
2019-03-10T19:04:02.988Z,98418.00
2019-03-10T19:06:32.647Z,98445.00
2019-03-10T19:09:09.063Z,98420.00
2019-03-10T19:11:38.732Z,98417.00
2019-03-10T19:14:14.654Z,98413.00
2019-03-10T19:16:44.183Z,98405.00
2019-03-10T19:19:13.857Z,98406.00
2019-03-10T19:21:50.372Z,98406.00
2019-03-10T19:24:26.775Z,98405.00
2019-03-10T19:27:04.254Z,98398.00
2019-03-10T19:29:33.795Z,98401.00
2019-03-10T19:32:04.144Z,98401.00
2019-03-10T19:34:40.402Z,98396.00
2019-03-10T19:37:09.990Z,98399.00
2019-03-10T19:39:52.443Z,98400.00
2019-03-10T19:42:28.594Z,98399.00
2019-03-10T19:45:05.027Z,98393.00
2019-03-10T19:47:34.848Z,98382.00
2019-03-10T19:50:07.178Z,98421.00
2019-03-10T19:52:42.998Z,98385.00
2019-03-10T19:55:14.954Z,98385.00
2019-03-10T19:57:51.034Z,98382.00
2019-03-10T20:00:28.616Z,98388.00
2019-03-10T20:02:58.204Z,98384.00
2019-03-10T20:05:28.013Z,98386.00
2019-03-10T20:08:03.561Z,98385.00
2019-03-10T20:10:33.227Z,98385.00
2019-03-10T20:13:08.995Z,98386.00
2019-03-10T20:15:38.597Z,98381.00
2019-03-10T20:18:16.023Z,98386.00
2019-03-10T20:20:46.038Z,98377.00
2019-03-10T20:23:15.691Z,98378.00
2019-03-10T20:25:54.445Z,98382.00
2019-03-10T20:28:30.790Z,98379.00
2019-03-10T20:31:00.451Z,98366.00
2019-03-10T20:33:42.319Z,98373.00
2019-03-10T20:36:11.839Z,98373.00
2019-03-10T20:38:54.970Z,98373.00
2019-03-10T20:41:37.212Z,98371.00
2019-03-10T20:44:12.830Z,98368.00
2019-03-10T20:46:48.869Z,98372.00
2019-03-10T20:49:18.325Z,98365.00
2019-03-10T20:51:54.401Z,98366.00
2019-03-10T20:54:30.107Z,98374.00
2019-03-10T20:57:06.506Z,98374.00
2019-03-10T20:59:36.032Z,98385.00
2019-03-10T21:02:12.487Z,98382.00
2019-03-10T21:04:41.958Z,98386.00
2019-03-10T21:07:17.675Z,98383.00
2019-03-10T21:09:53.717Z,98385.00
2019-03-10T21:12:39.772Z,98384.00
2019-03-10T21:15:00.808Z,98380.00
2019-03-10T21:17:37.436Z,98386.00
2019-03-10T21:20:18.449Z,98375.00
2019-03-10T21:22:47.989Z,98372.00
2019-03-10T21:25:30.324Z,98370.00
2019-03-10T21:28:00.133Z,98370.00
2019-03-10T21:30:40.180Z,98369.00
2019-03-10T21:33:09.703Z,98372.00
2019-03-10T21:35:39.511Z,98372.00
2019-03-10T21:38:21.633Z,98377.00
2019-03-10T21:40:57.442Z,98373.00
2019-03-10T21:43:33.260Z,98374.00
2019-03-10T21:46:09.523Z,98374.00
2019-03-10T21:48:45.917Z,98384.00
2019-03-10T21:51:21.593Z,98382.00
2019-03-10T21:53:57.287Z,98384.00
2019-03-10T21:56:33.625Z,98402.00
2019-03-10T21:59:09.676Z,98421.00
2019-03-10T22:01:45.882Z,98408.00
2019-03-10T22:04:21.532Z,98416.00
2019-03-10T22:06:58.055Z,98412.00
2019-03-10T22:09:27.606Z,98417.00
2019-03-10T22:11:57.129Z,98404.00
2019-03-10T22:14:33.067Z,98405.00
2019-03-10T22:17:02.607Z,98407.00
2019-03-10T22:19:44.869Z,98408.00
2019-03-10T22:22:14.313Z,98403.00
2019-03-10T22:24:50.605Z,98399.00
2019-03-10T22:27:20.121Z,98408.00
2019-03-10T22:29:57.834Z,98395.00
2019-03-10T22:32:27.062Z,98403.00
2019-03-10T22:34:56.510Z,98403.00
2019-03-10T22:37:39.249Z,98406.00
2019-03-10T22:40:21.543Z,98404.00
2019-03-10T22:43:04.236Z,98413.00
2019-03-10T22:45:33.694Z,98413.00
2019-03-10T22:48:03.167Z,98412.00
2019-03-10T22:50:38.861Z,98413.00
2019-03-10T22:53:14.555Z,98417.00
2019-03-10T22:55:44.008Z,98420.00
2019-03-10T22:58:19.980Z,98420.00
2019-03-10T23:00:57.651Z,98417.00
2019-03-10T23:03:27.301Z,98414.00
2019-03-10T23:06:03.032Z,98428.00
2019-03-10T23:08:38.695Z,98426.00
2019-03-10T23:11:14.330Z,98430.00
2019-03-10T23:13:43.769Z,98430.00
2019-03-10T23:16:13.357Z,98432.00
2019-03-10T23:18:49.616Z,98428.00
2019-03-10T23:21:27.683Z,98431.00
2019-03-10T23:24:03.413Z,98439.00
2019-03-10T23:26:32.909Z,98450.00
2019-03-10T23:29:08.947Z,98452.00
2019-03-10T23:31:45.076Z,98449.00
2019-03-10T23:34:14.514Z,98449.00
2019-03-10T23:36:57.249Z,98491.00
2019-03-10T23:39:26.698Z,98466.00
2019-03-10T23:42:02.479Z,98474.00
2019-03-10T23:44:45.388Z,98464.00
2019-03-10T23:47:14.899Z,98475.00
2019-03-10T23:49:50.780Z,98473.00
2019-03-10T23:52:27.165Z,98494.00
2019-03-10T23:55:03.775Z,98479.00
2019-03-10T23:57:39.351Z,98497.00
